sensor_id;sensor_type;location;lat;lon;timestamp;pressure;altitude;pressure_sealevel;temperature;humidity
69221;BME280;56331;51.992;20.910;2022-10-01T00:00:24;100010.85;;;21.66;45.74
69221;BME280;56331;51.992;20.910;2022-10-01T00:02:53;100007.53;;;21.67;45.79
69221;BME280;56331;51.992;20.910;2022-10-01T00:05:20;100013.08;;;21.67;45.74
69221;BME280;56331;51.992;20.910;2022-10-01T00:07:46;100013.87;;;21.67;45.79
69221;BME280;56331;51.992;20.910;2022-10-01T00:10:14;100012.83;;;21.66;45.77
69221;BME280;56331;51.992;20.910;2022-10-01T00:12:43;100011.44;;;21.66;45.81
69221;BME280;56331;51.992;20.910;2022-10-01T00:15:13;100015.59;;;21.66;45.84
69221;BME280;56331;51.992;20.910;2022-10-01T00:17:40;100021.14;;;21.66;45.83
69221;BME280;56331;51.992;20.910;2022-10-01T00:20:07;100018.95;;;21.65;45.88
69221;BME280;56331;51.992;20.910;2022-10-01T00:22:34;100021.94;;;21.66;45.86
69221;BME280;56331;51.992;20.910;2022-10-01T00:25:04;100019.75;;;21.66;45.83
69221;BME280;56331;51.992;20.910;2022-10-01T00:27:31;100028.66;;;21.65;45.83
69221;BME280;56331;51.992;20.910;2022-10-01T00:29:57;100034.78;;;21.65;45.83
69221;BME280;56331;51.992;20.910;2022-10-01T00:32:24;100040.91;;;21.64;45.85
69221;BME280;56331;51.992;20.910;2022-10-01T00:34:50;100041.13;;;21.65;45.87
69221;BME280;56331;51.992;20.910;2022-10-01T00:37:18;100039.27;;;21.63;45.85
69221;BME280;56331;51.992;20.910;2022-10-01T00:39:44;100046.45;;;21.64;45.84
69221;BME280;56331;51.992;20.910;2022-10-01T00:42:30;100045.62;;;21.63;45.88
69221;BME280;56331;51.992;20.910;2022-10-01T00:44:44;100036.75;;;21.64;45.89
69221;BME280;56331;51.992;20.910;2022-10-01T00:49:48;100033.98;;;21.64;45.92
69221;BME280;56331;51.992;20.910;2022-10-01T00:52:17;100019.87;;;21.63;45.87
69221;BME280;56331;51.992;20.910;2022-10-01T00:54:53;100021.26;;;21.63;45.90
69221;BME280;56331;51.992;20.910;2022-10-01T00:57:22;100021.26;;;21.63;45.91
69221;BME280;56331;51.992;20.910;2022-10-01T00:59:51;100006.37;;;21.61;45.92
69221;BME280;56331;51.992;20.910;2022-10-01T01:02:19;100011.67;;;21.60;45.91
69221;BME280;56331;51.992;20.910;2022-10-01T01:04:45;100015.83;;;21.60;45.96
69221;BME280;56331;51.992;20.910;2022-10-01T01:07:12;100026.33;;;21.61;45.93
69221;BME280;56331;51.992;20.910;2022-10-01T01:09:45;100028.55;;;21.61;45.89
69221;BME280;56331;51.992;20.910;2022-10-01T01:23:18;100016.41;;;21.60;45.94
69221;BME280;56331;51.992;20.910;2022-10-01T01:28:36;100020.35;;;21.59;45.97
69221;BME280;56331;51.992;20.910;2022-10-01T01:31:07;100023.13;;;21.59;46.03
69221;BME280;56331;51.992;20.910;2022-10-01T01:33:35;100024.51;;;21.59;46.00
69221;BME280;56331;51.992;20.910;2022-10-01T01:36:09;100033.37;;;21.58;46.01
69221;BME280;56331;51.992;20.910;2022-10-01T01:38:42;100036.98;;;21.59;45.97
69221;BME280;56331;51.992;20.910;2022-10-01T01:41:11;100039.17;;;21.59;46.00
69221;BME280;56331;51.992;20.910;2022-10-01T01:43:43;100027.83;;;21.58;45.99
69221;BME280;56331;51.992;20.910;2022-10-01T01:46:11;100036.15;;;21.58;46.01
69221;BME280;56331;51.992;20.910;2022-10-01T01:48:39;100037.53;;;21.58;46.04
69221;BME280;56331;51.992;20.910;2022-10-01T01:51:23;100033.96;;;21.58;46.05
69221;BME280;56331;51.992;20.910;2022-10-01T01:53:45;100027.03;;;21.58;46.01
69221;BME280;56331;51.992;20.910;2022-10-01T01:56:13;100034.55;;;21.57;46.00
69221;BME280;56331;51.992;20.910;2022-10-01T01:58:42;100031.77;;;21.57;46.00
69221;BME280;56331;51.992;20.910;2022-10-01T02:01:35;100036.73;;;21.58;45.99
69221;BME280;56331;51.992;20.910;2022-10-01T02:04:10;100043.91;;;21.59;45.98
69221;BME280;56331;51.992;20.910;2022-10-01T02:12:14;100033.27;;;21.55;45.43
69221;BME280;56331;51.992;20.910;2022-10-01T02:14:51;100034.66;;;21.55;45.40
69221;BME280;56331;51.992;20.910;2022-10-01T02:17:30;100029.92;;;21.55;45.36
69221;BME280;56331;51.992;20.910;2022-10-01T02:20:07;100026.02;;;21.56;45.32
69221;BME280;56331;51.992;20.910;2022-10-01T02:22:38;100018.25;;;21.56;45.25
69221;BME280;56331;51.992;20.910;2022-10-01T02:25:07;100013.87;;;21.55;45.19
69221;BME280;56331;51.992;20.910;2022-10-01T02:27:42;100003.59;;;21.55;45.18
69221;BME280;56331;51.992;20.910;2022-10-01T02:30:07;99994.00;;;21.53;45.15
69221;BME280;56331;51.992;20.910;2022-10-01T02:32:37;100006.14;;;21.54;45.09
69221;BME280;56331;51.992;20.910;2022-10-01T02:35:06;100007.53;;;21.54;45.03
69221;BME280;56331;51.992;20.910;2022-10-01T02:37:35;100011.09;;;21.55;45.05
69221;BME280;56331;51.992;20.910;2022-10-01T02:40:04;100004.75;;;21.54;44.98
69221;BME280;56331;51.992;20.910;2022-10-01T02:42:33;100018.03;;;21.55;44.95
69221;BME280;56331;51.992;20.910;2022-10-01T02:45:02;100018.36;;;21.53;44.89
69221;BME280;56331;51.992;20.910;2022-10-01T02:47:32;100016.06;;;21.55;44.86
69221;BME280;56331;51.992;20.910;2022-10-01T02:50:14;100025.17;;;21.56;44.88
69221;BME280;56331;51.992;20.910;2022-10-01T02:52:52;100021.38;;;21.54;44.82
69221;BME280;56331;51.992;20.910;2022-10-01T02:55:29;100028.90;;;21.54;44.80
69221;BME280;56331;51.992;20.910;2022-10-01T02:57:56;100023.36;;;21.54;44.80
69221;BME280;56331;51.992;20.910;2022-10-01T03:00:23;100022.77;;;21.54;44.79
69221;BME280;56331;51.992;20.910;2022-10-01T03:02:51;100016.42;;;21.54;44.74
69221;BME280;56331;51.992;20.910;2022-10-01T03:05:18;100021.38;;;21.54;44.73
69221;BME280;56331;51.992;20.910;2022-10-01T03:07:46;100018.36;;;21.53;44.67
69221;BME280;56331;51.992;20.910;2022-10-01T03:10:13;100013.66;;;21.54;44.63
69221;BME280;56331;51.992;20.910;2022-10-01T03:13:00;99997.58;;;21.53;44.66
69221;BME280;56331;51.992;20.910;2022-10-01T03:15:27;99994.00;;;21.53;44.63
69221;BME280;56331;51.992;20.910;2022-10-01T03:17:54;99979.56;;;21.53;44.60
69221;BME280;56331;51.992;20.910;2022-10-01T03:20:20;99971.83;;;21.53;44.61
69221;BME280;56331;51.992;20.910;2022-10-01T03:22:47;99968.47;;;21.53;44.53
69221;BME280;56331;51.992;20.910;2022-10-01T03:25:14;99974.60;;;21.53;44.55
69221;BME280;56331;51.992;20.910;2022-10-01T03:27:41;99967.09;;;21.53;44.55
69221;BME280;56331;51.992;20.910;2022-10-01T03:30:13;99971.25;;;21.53;44.53
69221;BME280;56331;51.992;20.910;2022-10-01T03:32:36;99967.92;;;21.54;44.48
69221;BME280;56331;51.992;20.910;2022-10-01T03:35:02;99967.09;;;21.53;44.43
69221;BME280;56331;51.992;20.910;2022-10-01T03:37:28;99980.73;;;21.52;44.42
69221;BME280;56331;51.992;20.910;2022-10-01T03:39:55;99978.54;;;21.52;44.43
69221;BME280;56331;51.992;20.910;2022-10-01T03:42:22;99982.92;;;21.53;44.39
69221;BME280;56331;51.992;20.910;2022-10-01T03:44:48;99979.13;;;21.51;44.34
69221;BME280;56331;51.992;20.910;2022-10-01T03:47:14;99991.81;;;21.52;44.27
69221;BME280;56331;51.992;20.910;2022-10-01T03:49:40;99997.94;;;21.52;44.27
69221;BME280;56331;51.992;20.910;2022-10-01T03:52:07;100003.27;;;21.51;44.28
69221;BME280;56331;51.992;20.910;2022-10-01T03:54:33;99996.89;;;21.50;44.23
69221;BME280;56331;51.992;20.910;2022-10-01T03:57:00;100004.66;;;21.51;44.26
69221;BME280;56331;51.992;20.910;2022-10-01T03:59:26;100003.48;;;21.52;44.21
69221;BME280;56331;51.992;20.910;2022-10-01T04:01:53;99999.11;;;21.51;44.19
69221;BME280;56331;51.992;20.910;2022-10-01T04:04:19;99997.72;;;21.51;44.22
69221;BME280;56331;51.992;20.910;2022-10-01T04:06:46;100000.93;;;21.53;44.35
69221;BME280;56331;51.992;20.910;2022-10-01T04:09:12;100006.26;;;21.52;44.48
69221;BME280;56331;51.992;20.910;2022-10-01T04:11:40;100007.28;;;21.53;44.52
69221;BME280;56331;51.992;20.910;2022-10-01T04:14:06;99997.14;;;21.51;44.51
69221;BME280;56331;51.992;20.910;2022-10-01T04:16:34;100001.05;;;21.50;44.56
69221;BME280;56331;51.992;20.910;2022-10-01T04:19:02;100004.41;;;21.50;44.61
69221;BME280;56331;51.992;20.910;2022-10-01T04:21:29;100006.59;;;21.50;44.64
69221;BME280;56331;51.992;20.910;2022-10-01T04:23:55;100005.79;;;21.50;44.64
69221;BME280;56331;51.992;20.910;2022-10-01T04:26:21;100000.25;;;21.50;44.70
69221;BME280;56331;51.992;20.910;2022-10-01T04:28:48;99996.67;;;21.49;44.70
69221;BME280;56331;51.992;20.910;2022-10-01T04:31:14;99993.31;;;21.50;44.74
69221;BME280;56331;51.992;20.910;2022-10-01T04:33:55;99988.36;;;21.49;44.78
69221;BME280;56331;51.992;20.910;2022-10-01T04:36:18;99990.33;;;21.49;44.77
69221;BME280;56331;51.992;20.910;2022-10-01T04:38:45;99998.64;;;21.49;44.79
69221;BME280;56331;51.992;20.910;2022-10-01T04:41:11;99991.24;;;21.47;44.84
69221;BME280;56331;51.992;20.910;2022-10-01T04:43:39;99984.53;;;21.48;44.86
69221;BME280;56331;51.992;20.910;2022-10-01T04:46:05;99996.45;;;21.48;44.84
69221;BME280;56331;51.992;20.910;2022-10-01T04:48:31;99996.45;;;21.48;44.85
69221;BME280;56331;51.992;20.910;2022-10-01T04:50:58;99991.46;;;21.48;44.90
69221;BME280;56331;51.992;20.910;2022-10-01T04:53:24;99990.08;;;21.48;44.88
69221;BME280;56331;51.992;20.910;2022-10-01T04:55:50;99991.46;;;21.48;44.93
69221;BME280;56331;51.992;20.910;2022-10-01T04:58:16;99987.89;;;21.47;44.98
69221;BME280;56331;51.992;20.910;2022-10-01T05:00:43;99985.12;;;21.47;45.02
69221;BME280;56331;51.992;20.910;2022-10-01T05:03:10;99988.14;;;21.48;45.08
69221;BME280;56331;51.992;20.910;2022-10-01T05:05:36;99985.70;;;21.47;45.20
69221;BME280;56331;51.992;20.910;2022-10-01T05:08:03;99990.66;;;21.47;45.26
69221;BME280;56331;51.992;20.910;2022-10-01T05:10:29;99993.44;;;21.47;45.33
69221;BME280;56331;51.992;20.910;2022-10-01T05:12:56;99995.63;;;21.48;45.39
69221;BME280;56331;51.992;20.910;2022-10-01T05:15:23;99996.20;;;21.47;45.50
69221;BME280;56331;51.992;20.910;2022-10-01T05:17:49;99994.82;;;21.47;45.47
69221;BME280;56331;51.992;20.910;2022-10-01T05:20:19;99996.45;;;21.48;45.49
69221;BME280;56331;51.992;20.910;2022-10-01T05:22:46;99995.40;;;21.47;45.55
69221;BME280;56331;51.992;20.910;2022-10-01T05:25:12;100005.32;;;21.48;45.64
69221;BME280;56331;51.992;20.910;2022-10-01T05:27:39;100006.70;;;21.48;45.67
69221;BME280;56331;51.992;20.910;2022-10-01T05:30:07;100002.91;;;21.46;45.68
69221;BME280;56331;51.992;20.910;2022-10-01T05:32:34;100003.72;;;21.47;45.73
69221;BME280;56331;51.992;20.910;2022-10-01T05:35:01;99999.56;;;21.47;45.82
69221;BME280;56331;51.992;20.910;2022-10-01T05:37:27;99998.17;;;21.47;45.88
69221;BME280;56331;51.992;20.910;2022-10-01T05:39:53;99994.59;;;21.46;45.97
69221;BME280;56331;51.992;20.910;2022-10-01T05:42:19;99995.98;;;21.46;46.02
69221;BME280;56331;51.992;20.910;2022-10-01T05:44:46;100002.91;;;21.46;46.09
69221;BME280;56331;51.992;20.910;2022-10-01T05:47:12;100000.73;;;21.46;46.13
69221;BME280;56331;51.992;20.910;2022-10-01T05:49:40;100000.73;;;21.46;46.22
69221;BME280;56331;51.992;20.910;2022-10-01T05:52:10;100000.14;;;21.46;46.28
69221;BME280;56331;51.992;20.910;2022-10-01T05:54:37;100002.66;;;21.45;46.43
69221;BME280;56331;51.992;20.910;2022-10-01T05:57:04;99998.51;;;21.45;46.55
69221;BME280;56331;51.992;20.910;2022-10-01T05:59:31;100000.14;;;21.46;46.74
69221;BME280;56331;51.992;20.910;2022-10-01T06:01:57;100002.11;;;21.46;46.82
69221;BME280;56331;51.992;20.910;2022-10-01T06:04:23;100003.50;;;21.46;46.80
69221;BME280;56331;51.992;20.910;2022-10-01T06:06:50;99997.70;;;21.45;46.55
69221;BME280;56331;51.992;20.910;2022-10-01T06:09:18;99999.09;;;21.45;46.48
69221;BME280;56331;51.992;20.910;2022-10-01T06:11:44;100001.86;;;21.45;46.48
69221;BME280;56331;51.992;20.910;2022-10-01T06:14:11;100001.28;;;21.45;46.46
69221;BME280;56331;51.992;20.910;2022-10-01T06:16:38;100001.28;;;21.45;46.47
69221;BME280;56331;51.992;20.910;2022-10-01T06:19:04;99992.16;;;21.45;46.54
69221;BME280;56331;51.992;20.910;2022-10-01T06:21:31;99998.88;;;21.44;46.53
69221;BME280;56331;51.992;20.910;2022-10-01T06:23:57;99998.88;;;21.44;46.49
69221;BME280;56331;51.992;20.910;2022-10-01T06:26:23;99992.97;;;21.45;46.49
69221;BME280;56331;51.992;20.910;2022-10-01T06:28:50;99994.93;;;21.45;46.48
69221;BME280;56331;51.992;20.910;2022-10-01T06:31:17;99988.00;;;21.45;46.47
69221;BME280;56331;51.992;20.910;2022-10-01T06:33:44;99988.25;;;21.46;46.41
69221;BME280;56331;51.992;20.910;2022-10-01T06:36:10;99986.03;;;21.45;46.42
69221;BME280;56331;51.992;20.910;2022-10-01T06:38:37;99984.90;;;21.46;46.45
69221;BME280;56331;51.992;20.910;2022-10-01T06:41:03;99976.92;;;21.45;46.40
69221;BME280;56331;51.992;20.910;2022-10-01T06:43:32;99976.92;;;21.45;46.40
69221;BME280;56331;51.992;20.910;2022-10-01T06:46:03;99984.66;;;21.45;46.41
69221;BME280;56331;51.992;20.910;2022-10-01T06:48:30;99978.55;;;21.46;46.34
69221;BME280;56331;51.992;20.910;2022-10-01T06:51:00;99981.33;;;21.46;46.29
69221;BME280;56331;51.992;20.910;2022-10-01T06:53:27;99984.09;;;21.46;46.28
69221;BME280;56331;51.992;20.910;2022-10-01T06:55:54;99985.23;;;21.45;46.20
69221;BME280;56331;51.992;20.910;2022-10-01T06:58:22;99985.48;;;21.46;46.21
69221;BME280;56331;51.992;20.910;2022-10-01T07:00:50;99981.08;;;21.45;46.21
69221;BME280;56331;51.992;20.910;2022-10-01T07:03:20;99979.22;;;21.43;46.25
69221;BME280;56331;51.992;20.910;2022-10-01T07:05:48;99977.28;;;21.43;46.33
69221;BME280;56331;51.992;20.910;2022-10-01T07:08:15;99978.30;;;21.45;46.36
69221;BME280;56331;51.992;20.910;2022-10-01T07:10:43;99976.12;;;21.44;46.37
69221;BME280;56331;51.992;20.910;2022-10-01T07:13:17;99982.24;;;21.44;46.46
69221;BME280;56331;51.992;20.910;2022-10-01T07:15:45;99984.21;;;21.43;46.49
69221;BME280;56331;51.992;20.910;2022-10-01T07:18:12;99985.59;;;21.43;46.55
69221;BME280;56331;51.992;20.910;2022-10-01T07:20:39;99982.83;;;21.43;46.62
69221;BME280;56331;51.992;20.910;2022-10-01T07:23:09;99992.27;;;21.42;46.68
69221;BME280;56331;51.992;20.910;2022-10-01T07:25:36;99978.20;;;21.41;46.76
69221;BME280;56331;51.992;20.910;2022-10-01T07:28:04;99974.84;;;21.41;46.76
69221;BME280;56331;51.992;20.910;2022-10-01T07:30:32;99968.72;;;21.42;46.64
69221;BME280;56331;51.992;20.910;2022-10-01T07:32:58;99978.09;;;21.44;46.63
69221;BME280;56331;51.992;20.910;2022-10-01T07:35:25;99983.63;;;21.44;46.68
69221;BME280;56331;51.992;20.910;2022-10-01T07:37:51;99978.30;;;21.45;46.63
69221;BME280;56331;51.992;20.910;2022-10-01T07:40:20;99973.93;;;21.44;46.67
69221;BME280;56331;51.992;20.910;2022-10-01T07:42:55;99965.62;;;21.44;46.66
69221;BME280;56331;51.992;20.910;2022-10-01T07:45:23;99974.15;;;21.45;46.64
69221;BME280;56331;51.992;20.910;2022-10-01T07:48:01;99976.12;;;21.44;46.69
69221;BME280;56331;51.992;20.910;2022-10-01T07:50:29;99978.09;;;21.44;46.74
69221;BME280;56331;51.992;20.910;2022-10-01T07:52:56;99982.83;;;21.43;46.77
69221;BME280;56331;51.992;20.910;2022-10-01T07:55:27;99976.12;;;21.44;46.77
69221;BME280;56331;51.992;20.910;2022-10-01T07:57:54;99979.47;;;21.44;46.76
69221;BME280;56331;51.992;20.910;2022-10-01T08:00:22;99976.12;;;21.44;46.69
69221;BME280;56331;51.992;20.910;2022-10-01T08:02:50;99977.28;;;21.43;46.77
69221;BME280;56331;51.992;20.910;2022-10-01T08:05:19;99980.86;;;21.44;47.03
69221;BME280;56331;51.992;20.910;2022-10-01T08:07:47;99976.70;;;21.44;47.32
69221;BME280;56331;51.992;20.910;2022-10-01T08:10:15;99975.06;;;21.43;47.46
69221;BME280;56331;51.992;20.910;2022-10-01T08:12:43;99977.28;;;21.43;47.46
69221;BME280;56331;51.992;20.910;2022-10-01T08:15:12;99978.09;;;21.44;47.48
69221;BME280;56331;51.992;20.910;2022-10-01T08:17:38;99975.31;;;21.44;47.31
69221;BME280;56331;51.992;20.910;2022-10-01T08:20:06;99978.09;;;21.44;47.19
69221;BME280;56331;51.992;20.910;2022-10-01T08:22:34;99975.31;;;21.44;47.08
69221;BME280;56331;51.992;20.910;2022-10-01T08:25:00;99975.90;;;21.43;46.99
69221;BME280;56331;51.992;20.910;2022-10-01T08:27:27;99977.28;;;21.43;46.98
69221;BME280;56331;51.992;20.910;2022-10-01T08:29:54;99978.67;;;21.43;46.97
69221;BME280;56331;51.992;20.910;2022-10-01T08:32:21;99970.91;;;21.43;46.93
69221;BME280;56331;51.992;20.910;2022-10-01T08:34:50;99975.65;;;21.42;46.92
69221;BME280;56331;51.992;20.910;2022-10-01T08:37:17;99969.09;;;21.40;46.90
69221;BME280;56331;51.992;20.910;2022-10-01T08:39:44;99969.89;;;21.41;46.90
69221;BME280;56331;51.992;20.910;2022-10-01T08:45:04;99963.30;;;21.39;46.80
69221;BME280;56331;51.992;20.910;2022-10-01T08:47:36;99961.33;;;21.40;46.83
69221;BME280;56331;51.992;20.910;2022-10-01T08:50:17;99960.39;;;21.36;46.85
69221;BME280;56331;51.992;20.910;2022-10-01T08:52:36;99960.03;;;21.37;46.78
69221;BME280;56331;51.992;20.910;2022-10-01T08:55:04;99956.15;;;21.38;46.73
69221;BME280;56331;51.992;20.910;2022-10-01T08:57:38;99963.75;;;21.35;46.72
69221;BME280;56331;51.992;20.910;2022-10-01T09:00:10;99962.58;;;21.36;46.71
69221;BME280;56331;51.992;20.910;2022-10-01T09:02:38;99963.37;;;21.37;46.66
69221;BME280;56331;51.992;20.910;2022-10-01T09:10:44;99948.50;;;21.35;46.60
69221;BME280;56331;51.992;20.910;2022-10-01T09:16:03;99943.52;;;21.35;46.50
69221;BME280;56331;51.992;20.910;2022-10-01T09:18:46;99939.36;;;21.35;47.17
69221;BME280;56331;51.992;20.910;2022-10-01T09:21:16;99933.27;;;21.35;47.84
69221;BME280;56331;51.992;20.910;2022-10-01T09:23:54;99935.45;;;21.36;48.37
69221;BME280;56331;51.992;20.910;2022-10-01T09:26:16;99935.67;;;21.37;48.72
69221;BME280;56331;51.992;20.910;2022-10-01T09:28:42;99932.91;;;21.37;48.51
69221;BME280;56331;51.992;20.910;2022-10-01T09:33:41;99919.84;;;21.37;48.18
69221;BME280;56331;51.992;20.910;2022-10-01T09:36:22;99918.58;;;21.35;47.95
69221;BME280;56331;51.992;20.910;2022-10-01T09:41:38;99907.75;;;21.36;47.55
69221;BME280;56331;51.992;20.910;2022-10-01T09:44:06;99911.91;;;21.36;47.51
69221;BME280;56331;51.992;20.910;2022-10-01T09:46:34;99913.51;;;21.37;47.41
69221;BME280;56331;51.992;20.910;2022-10-01T09:49:05;99918.25;;;21.36;47.30
69221;BME280;56331;51.992;20.910;2022-10-01T09:51:37;99911.53;;;21.37;47.25
69221;BME280;56331;51.992;20.910;2022-10-01T09:57:06;99918.47;;;21.37;47.04
69221;BME280;56331;51.992;20.910;2022-10-01T09:59:40;99915.69;;;21.37;46.93
69221;BME280;56331;51.992;20.910;2022-10-01T10:02:49;99913.20;;;21.38;46.83
69221;BME280;56331;51.992;20.910;2022-10-01T10:04:41;99912.92;;;21.37;46.75
69221;BME280;56331;51.992;20.910;2022-10-01T10:07:10;99911.53;;;21.37;46.70
69221;BME280;56331;51.992;20.910;2022-10-01T10:09:37;99912.13;;;21.37;46.61
69221;BME280;56331;51.992;20.910;2022-10-01T10:12:03;99915.17;;;21.38;46.55
69221;BME280;56331;51.992;20.910;2022-10-01T10:14:36;99911.53;;;21.37;46.48
69221;BME280;56331;51.992;20.910;2022-10-01T10:17:13;99905.78;;;21.36;46.42
69221;BME280;56331;51.992;20.910;2022-10-01T10:19:46;99897.69;;;21.37;46.36
69221;BME280;56331;51.992;20.910;2022-10-01T10:22:25;99899.66;;;21.37;46.30
69221;BME280;56331;51.992;20.910;2022-10-01T10:24:54;99893.00;;;21.38;46.25
69221;BME280;56331;51.992;20.910;2022-10-01T10:27:25;99891.92;;;21.36;46.23
69221;BME280;56331;51.992;20.910;2022-10-01T10:30:12;99884.41;;;21.37;46.26
69221;BME280;56331;51.992;20.910;2022-10-01T10:32:34;99880.26;;;21.37;46.20
69221;BME280;56331;51.992;20.910;2022-10-01T10:35:02;99873.91;;;21.36;46.24
69221;BME280;56331;51.992;20.910;2022-10-01T10:37:35;99865.30;;;21.38;46.38
69221;BME280;56331;51.992;20.910;2022-10-01T10:40:05;99860.86;;;21.37;46.44
69221;BME280;56331;51.992;20.910;2022-10-01T10:42:34;99853.35;;;21.37;46.44
69221;BME280;56331;51.992;20.910;2022-10-01T10:45:03;99848.39;;;21.37;46.42
69221;BME280;56331;51.992;20.910;2022-10-01T10:47:38;99846.20;;;21.36;46.51
69221;BME280;56331;51.992;20.910;2022-10-01T10:50:03;99845.04;;;21.37;46.57
69221;BME280;56331;51.992;20.910;2022-10-01T10:52:32;99837.31;;;21.37;46.66
69221;BME280;56331;51.992;20.910;2022-10-01T10:55:02;99830.38;;;21.37;46.68
69221;BME280;56331;51.992;20.910;2022-10-01T10:57:30;99827.98;;;21.35;46.66
69221;BME280;56331;51.992;20.910;2022-10-01T11:02:28;99819.89;;;21.36;46.59
69221;BME280;56331;51.992;20.910;2022-10-01T11:05:10;99807.75;;;21.35;46.62
69221;BME280;56331;51.992;20.910;2022-10-01T11:07:31;99804.43;;;21.35;46.62
69221;BME280;56331;51.992;20.910;2022-10-01T11:24:20;99774.29;;;21.34;46.87
69221;BME280;56331;51.992;20.910;2022-10-01T11:29:26;99767.48;;;21.31;47.01
69221;BME280;56331;51.992;20.910;2022-10-01T11:37:51;99759.64;;;21.33;47.17
69221;BME280;56331;51.992;20.910;2022-10-01T11:42:47;99747.76;;;21.33;47.29
69221;BME280;56331;51.992;20.910;2022-10-01T11:45:18;99740.83;;;21.33;47.30
69221;BME280;56331;51.992;20.910;2022-10-01T11:47:52;99746.38;;;21.33;47.36
69221;BME280;56331;51.992;20.910;2022-10-01T11:50:38;99737.47;;;21.33;47.35
69221;BME280;56331;51.992;20.910;2022-10-01T11:53:20;99730.55;;;21.33;47.32
69221;BME280;56331;51.992;20.910;2022-10-01T11:55:53;99731.34;;;21.34;47.35
69221;BME280;56331;51.992;20.910;2022-10-01T12:01:50;99712.53;;;21.33;47.34
69221;BME280;56331;51.992;20.910;2022-10-01T12:12:10;99699.48;;;21.34;46.96
69221;BME280;56331;51.992;20.910;2022-10-01T12:14:43;99693.61;;;21.35;46.77
69221;BME280;56331;51.992;20.910;2022-10-01T12:17:47;99693.02;;;21.36;46.63
69221;BME280;56331;51.992;20.910;2022-10-01T12:19:49;99685.30;;;21.35;46.60
69221;BME280;56331;51.992;20.910;2022-10-01T12:22:24;99688.86;;;21.36;46.58
69221;BME280;56331;51.992;20.910;2022-10-01T12:24:52;99690.84;;;21.35;46.47
69221;BME280;56331;51.992;20.910;2022-10-01T12:40:52;99660.91;;;21.35;46.28
69221;BME280;56331;51.992;20.910;2022-10-01T12:54:31;99642.56;;;21.36;46.41
69221;BME280;56331;51.992;20.910;2022-10-01T12:57:25;99644.53;;;21.36;46.59
69221;BME280;56331;51.992;20.910;2022-10-01T13:00:23;99636.44;;;21.37;46.78
69221;BME280;56331;51.992;20.910;2022-10-01T13:14:02;99619.36;;;21.35;47.17
69221;BME280;56331;51.992;20.910;2022-10-01T13:16:38;99622.13;;;21.35;47.11
69221;BME280;56331;51.992;20.910;2022-10-01T13:19:08;99625.48;;;21.34;47.34
69221;BME280;56331;51.992;20.910;2022-10-01T13:29:50;99617.17;;;21.34;47.43
69221;BME280;56331;51.992;20.910;2022-10-01T13:32:33;99614.19;;;21.33;47.61
69221;BME280;56331;51.992;20.910;2022-10-01T13:37:47;99610.83;;;21.34;47.62
69221;BME280;56331;51.992;20.910;2022-10-01T13:40:31;99608.86;;;21.34;47.63
69221;BME280;56331;51.992;20.910;2022-10-01T13:43:16;99606.89;;;21.35;47.61
69221;BME280;56331;51.992;20.910;2022-10-01T13:45:49;99597.78;;;21.34;47.71
69221;BME280;56331;51.992;20.910;2022-10-01T13:48:19;99602.73;;;21.35;47.81
69221;BME280;56331;51.992;20.910;2022-10-01T13:51:08;99599.75;;;21.34;47.79
69221;BME280;56331;51.992;20.910;2022-10-01T13:56:12;99607.27;;;21.33;47.76
69221;BME280;56331;51.992;20.910;2022-10-01T13:58:41;99606.46;;;21.33;47.75
69221;BME280;56331;51.992;20.910;2022-10-01T14:03:55;99603.69;;;21.33;47.71
69221;BME280;56331;51.992;20.910;2022-10-01T14:08:58;99588.21;;;21.32;47.80
69221;BME280;56331;51.992;20.910;2022-10-01T14:11:24;99581.53;;;21.33;47.83
69221;BME280;56331;51.992;20.910;2022-10-01T14:17:24;99578.52;;;21.32;47.79
69221;BME280;56331;51.992;20.910;2022-10-01T14:19:52;99582.08;;;21.32;47.77
69221;BME280;56331;51.992;20.910;2022-10-01T14:30:38;99572.63;;;21.33;48.05
69221;BME280;56331;51.992;20.910;2022-10-01T14:36:29;99557.39;;;21.33;47.68
69221;BME280;56331;51.992;20.910;2022-10-01T14:39:22;99557.98;;;21.33;47.56
69221;BME280;56331;51.992;20.910;2022-10-01T14:41:51;99559.58;;;21.34;47.54
69221;BME280;56331;51.992;20.910;2022-10-01T14:44:21;99544.92;;;21.33;47.39
69221;BME280;56331;51.992;20.910;2022-10-01T14:46:49;99539.59;;;21.34;47.28
69221;BME280;56331;51.992;20.910;2022-10-01T14:49:27;99536.24;;;21.35;47.18
69221;BME280;56331;51.992;20.910;2022-10-01T14:52:03;99537.07;;;21.35;47.06
69221;BME280;56331;51.992;20.910;2022-10-01T14:54:38;99531.53;;;21.35;47.01
69221;BME280;56331;51.992;20.910;2022-10-01T14:56:59;99526.20;;;21.36;46.95
69221;BME280;56331;51.992;20.910;2022-10-01T14:59:29;99521.00;;;21.35;46.92
69221;BME280;56331;51.992;20.910;2022-10-01T15:01:58;99512.14;;;21.35;46.92
69221;BME280;56331;51.992;20.910;2022-10-01T15:04:25;99512.14;;;21.35;46.92
69221;BME280;56331;51.992;20.910;2022-10-01T15:06:51;99512.94;;;21.36;46.99
69221;BME280;56331;51.992;20.910;2022-10-01T15:09:17;99506.80;;;21.36;47.01
69221;BME280;56331;51.992;20.910;2022-10-01T15:11:47;99509.78;;;21.37;47.04
69221;BME280;56331;51.992;20.910;2022-10-01T15:14:22;99507.02;;;21.37;47.00
69221;BME280;56331;51.992;20.910;2022-10-01T15:16:50;99504.84;;;21.37;47.00
69221;BME280;56331;51.992;20.910;2022-10-01T15:19:20;99504.03;;;21.36;46.96
69221;BME280;56331;51.992;20.910;2022-10-01T15:21:53;99499.67;;;21.35;46.97
69221;BME280;56331;51.992;20.910;2022-10-01T15:26:57;99489.59;;;21.37;47.00
69221;BME280;56331;51.992;20.910;2022-10-01T15:29:24;99492.74;;;21.35;46.89
69221;BME280;56331;51.992;20.910;2022-10-01T15:31:51;99493.54;;;21.36;46.83